Stations météo

réclame
Mon MeteoGroup
Monte Cimone, Italie (16134): Température de l'air & dewpoint: 12.08.2018 02:00:00 - 18.08.2018 02:00:00 (CEST)Monte Cimone, Italie (16134): Vitesse du vent: 12.08.2018 02:00:00 - 18.08.2018 02:00:00 (CEST)Monte Cimone, Italie (16134): Direction du vent: 12.08.2018 02:00:00 - 18.08.2018 02:00:00 (CEST)Monte Cimone, Italie (16134): visibility: 12.08.2018 02:00:00 - 18.08.2018 02:00:00 (CEST)Monte Cimone, Italie (16134): Ensoleillement: 12.08.2018 02:00:00 - 18.08.2018 02:00:00 (CEST)
Date & Time tt [°C] td [°C] ff [km/h] ff [knt] dd vv [km] sd [min]
18.08.2018 02:00:00 11,4 10,0 9 5 NNW 20 -
18.08.2018 01:00:00 12,0 9,7 13 7 NNW 30 -
18.08.2018 00:00:00 12,0 9,5 8 4 W 50 -
17.08.2018 23:00:00 12,0 8,7 2 1 W 50 -
17.08.2018 22:00:00 12,0 7,3 8 4 NNE 50 -
17.08.2018 21:00:00 12,2 8,5 5 3 N 40 -
17.08.2018 20:00:00 12,4 9,8 4 2 ESE 40 24
17.08.2018 19:00:00 12,6 8,5 11 6 ESE 40 24
17.08.2018 18:00:00 13,0 8,1 8 4 E 40 60
17.08.2018 17:00:00 13,0 7,7 11 6 ENE 40 60
17.08.2018 16:00:00 13,0 6,8 9 5 ENE 40 48
17.08.2018 15:00:00 13,0 7,7 8 4 NNE 40 18
17.08.2018 14:00:00 13,0 7,7 5 3 ENE 40 30
17.08.2018 13:00:00 12,8 5,5 8 4 NNE 50 -
17.08.2018 12:00:00 12,8 5,7 5 3 N 30 60
17.08.2018 11:00:00 11,2 4,2 8 4 NE 50 60
17.08.2018 10:00:00 10,0 4,2 15 8 NNE 50 60
17.08.2018 09:00:00 10,0 4,8 26 14 N 50 60
17.08.2018 08:00:00 9,4 4,4 39 21 NNE 50 60
17.08.2018 07:00:00 9,0 5,0 21 11 N 50 -
17.08.2018 06:00:00 9,0 5,2 11 6 NNW 50 -
17.08.2018 05:00:00 9,0 4,8 16 9 NNW 50 -
17.08.2018 04:00:00 9,0 5,2 16 9 NNW 50 -
17.08.2018 03:00:00 9,2 5,4 11 6 NNW 50 -
17.08.2018 02:00:00 9,4 4,4 15 8 NNW 50 -
17.08.2018 01:00:00 9,6 4,4 13 7 NNW 50 -
17.08.2018 00:00:00 9,6 4,6 13 7 NNW 50 -
16.08.2018 23:00:00 9,8 4,2 11 6 NNW 50 -
16.08.2018 22:00:00 10,0 4,4 26 14 NNE 50 -
16.08.2018 21:00:00 10,0 2,4 26 14 NNE 50 -
16.08.2018 20:00:00 10,0 8,1 28 15 NNE 30 48
16.08.2018 19:00:00 10,4 8,2 24 13 NNE 30 60
16.08.2018 18:00:00 11,0 6,9 21 11 NNE 30 60
16.08.2018 17:00:00 11,4 6,5 22 12 NNE 30 60
16.08.2018 16:00:00 11,6 6,7 24 13 NNE 30 60
16.08.2018 15:00:00 11,2 6,4 18 10 NE 30 60
16.08.2018 14:00:00 10,6 7,1 28 15 NE 30 60
16.08.2018 13:00:00 10,2 7,6 29 16 NE 2,0 60
16.08.2018 12:00:00 9,4 7,8 37 20 ENE 1,2 60
16.08.2018 11:00:00 9,0 7,9 41 22 NE 1,2 60
16.08.2018 10:00:00 8,8 6,9 41 22 ENE 30 60
16.08.2018 09:00:00 8,6 6,0 48 26 NE 30 60
16.08.2018 08:00:00 8,4 5,3 54 29 NE 50 42
16.08.2018 07:00:00 8,2 5,0 59 32 NE 50 0
16.08.2018 06:00:00 8,0 4,9 67 36 NE 50 -
16.08.2018 05:00:00 8,2 5,0 63 34 NE 20 -
16.08.2018 04:00:00 8,2 6,3 74 40 NNE 50 -
16.08.2018 03:00:00 8,2 6,7 63 34 NE 50 -
16.08.2018 02:00:00 8,2 7,4 65 35 NE 50 -
16.08.2018 01:00:00 8,2 6,2 50 27 NE 50 -
16.08.2018 00:00:00 8,2 6,2 50 27 NE 50 -
15.08.2018 23:00:00 8,6 5,9 61 33 NE 50 -
15.08.2018 22:00:00 8,8 3,8 67 36 NNE 50 -
15.08.2018 21:00:00 8,4 7,2 63 34 NNE 50 -
15.08.2018 20:00:00 9,0 8,1 52 28 NNE - 0
15.08.2018 19:00:00 9,2 8,3 37 20 N - 0
15.08.2018 18:00:00 9,2 8,3 44 24 NNE - 0
15.08.2018 17:00:00 9,0 8,1 44 24 NNE - 0
15.08.2018 16:00:00 9,0 8,1 44 24 NNE - 0
15.08.2018 15:00:00 8,8 7,9 46 25 NE - 0
15.08.2018 14:00:00 8,6 7,7 54 29 NE - 0
15.08.2018 13:00:00 8,4 7,5 63 34 NE - 0
15.08.2018 12:00:00 8,2 7,1 65 35 NE - 0
15.08.2018 11:00:00 7,8 6,9 70 38 NE - 0
15.08.2018 10:00:00 7,8 7,0 70 38 NE - 0
15.08.2018 09:00:00 7,8 7,0 78 42 NE - 0
15.08.2018 08:00:00 8,4 7,3 80 43 NE - 0
15.08.2018 07:00:00 8,2 7,6 67 36 NNE - 0
15.08.2018 06:00:00 8,2 6,0 63 34 NNE - -
15.08.2018 05:00:00 8,2 7,6 55 30 NNE - -
15.08.2018 04:00:00 8,4 7,8 52 28 N - -
15.08.2018 03:00:00 8,2 7,6 48 26 N - -
15.08.2018 02:00:00 8,0 7,3 61 33 NNE - -
15.08.2018 01:00:00 9,0 9,0 37 20 N - -
15.08.2018 00:00:00 9,0 9,0 37 20 N - -
14.08.2018 23:00:00 9,4 9,4 24 13 N 12 -
14.08.2018 22:00:00 10,0 7,6 16 9 NNW 20 -
14.08.2018 21:00:00 10,0 6,0 13 7 NNW 20 -
14.08.2018 20:00:00 10,6 5,2 9 5 WNW 20 0
14.08.2018 19:00:00 10,8 5,4 9 5 N 20 0
14.08.2018 18:00:00 10,2 5,8 21 11 NNW 15 0
14.08.2018 17:00:00 9,0 8,2 44 24 NNW - 0
14.08.2018 16:00:00 13,2 9,8 5 3 W 15 0
14.08.2018 15:00:00 13,4 9,8 9 5 W 15 0
14.08.2018 14:00:00 13,0 9,8 9 5 W 15 0
14.08.2018 13:00:00 12,6 9,6 5 3 WSW 15 0
14.08.2018 12:00:00 12,0 9,7 8 4 W 15 0
14.08.2018 11:00:00 11,0 8,2 9 5 WNW 15 0
14.08.2018 10:00:00 11,0 6,9 11 6 S 20 0
14.08.2018 09:00:00 10,8 6,5 11 6 SSW 20 0
14.08.2018 08:00:00 10,6 6,2 9 5 W 15 0
14.08.2018 07:00:00 10,4 6,5 11 6 SSW 0,3 0
14.08.2018 06:00:00 10,6 5,4 26 14 SW 0,3 -
14.08.2018 05:00:00 11,0 4,0 31 17 WSW 20 -
14.08.2018 04:00:00 11,2 4,4 39 21 WSW 20 -
14.08.2018 03:00:00 11,4 6,9 42 23 W 0,3 -
14.08.2018 02:00:00 11,0 9,8 13 7 WNW 0,3 -
14.08.2018 01:00:00 11,0 9,6 22 12 SW - -
14.08.2018 00:00:00 11,0 10,2 16 9 W - -
13.08.2018 23:00:00 11,2 10,6 15 8 W - -
13.08.2018 22:00:00 11,2 10,7 15 8 WNW - -
13.08.2018 21:00:00 11,2 11,0 15 8 WNW - -
13.08.2018 20:00:00 11,2 11,2 16 9 W - 0
13.08.2018 19:00:00 11,8 10,2 15 8 W - 0
13.08.2018 18:00:00 13,2 9,5 13 7 WNW 20 0
13.08.2018 17:00:00 13,6 9,5 13 7 SSE 12 0
13.08.2018 16:00:00 13,4 9,5 15 8 SW 0,3 0
13.08.2018 15:00:00 14,4 11,2 9 5 W 0,3 0
13.08.2018 14:00:00 15,0 11,0 8 4 W 0,3 60
13.08.2018 13:00:00 15,4 10,6 8 4 W 30 60
13.08.2018 12:00:00 15,6 9,5 5 3 WNW 30 60
13.08.2018 11:00:00 15,6 8,8 5 3 SW 30 60
13.08.2018 10:00:00 14,6 3,7 5 3 WSW 30 60
13.08.2018 09:00:00 13,8 1,8 4 2 SW 30 60
13.08.2018 08:00:00 13,2 0,3 5 3 SW 30 18
13.08.2018 07:00:00 13,0 -0,3 13 7 SW 30 -
13.08.2018 06:00:00 12,8 0,2 16 9 SW 30 -
13.08.2018 05:00:00 13,0 -0,6 8 4 W 30 -
13.08.2018 04:00:00 13,0 -1,7 13 7 W 30 -
13.08.2018 03:00:00 13,0 -0,6 21 11 SSW 30 -
13.08.2018 02:00:00 12,8 -2,7 15 8 SSW 30 -
13.08.2018 01:00:00 12,8 -0,8 16 9 SW 30 -
13.08.2018 00:00:00 13,0 -1,7 22 12 SSW 30 -
12.08.2018 23:00:00 13,2 -2,7 13 7 SW 30 -
12.08.2018 22:00:00 13,6 -4,1 24 13 SSW 20 -
12.08.2018 21:00:00 14,0 -3,7 26 14 SSW 20 -
12.08.2018 20:00:00 15,4 7,7 8 4 SW 20 54
12.08.2018 19:00:00 15,8 8,1 0 0 N 20 42
12.08.2018 18:00:00 15,8 7,3 4 2 NNW 20 30
12.08.2018 17:00:00 16,0 8,7 5 3 WSW 20 0
12.08.2018 16:00:00 16,2 9,6 5 3 SSW 20 54
12.08.2018 15:00:00 13,8 10,2 15 8 SSW 2,0 0
12.08.2018 14:00:00 15,0 12,3 15 8 SSW 2,0 30
12.08.2018 13:00:00 14,0 12,0 9 5 SSW 2,0 30
12.08.2018 12:00:00 13,6 11,7 15 8 S 2,0 6
12.08.2018 11:00:00 13,0 10,7 0 0 N 2,0 18
12.08.2018 10:00:00 12,2 10,6 15 8 ESE 20 54
12.08.2018 09:00:00 12,2 6,9 18 10 ESE 30 60
12.08.2018 08:00:00 12,0 7,9 21 11 E 30 60
12.08.2018 07:00:00 12,0 10,4 26 14 NE 30 12
12.08.2018 06:00:00 12,0 10,1 22 12 NE 30 -
12.08.2018 05:00:00 12,2 11,1 21 11 NE 20 -
12.08.2018 04:00:00 12,4 10,5 13 7 NNE 20 -
12.08.2018 03:00:00 12,2 11,4 16 9 NNE 20 -
12.08.2018 02:00:00 12,2 9,9 13 7 NE 30 -

tt = Température de l'air
td = dewpoint
ff = Vitesse du vent
dd = Direction du vent
vv = visibility
sd = Ensoleillement

stations d'obs. à proximité